首页
METAR-TAF:

METAR-TAF

机场 :

查塔努加, 田纳西州, 美国

纬度: 35-02-00N, 经度: 085-12-00W, 海拔: 207米

当前天气观测

该预报发布于49分钟前的23:53 UTC
风速7节,风向
温度 21°C
湿度 64%
气压 1014 hPa
能見度: 16.1公里
阴天层高于2400英尺

METAR: KCHA 152353Z 17007KT 10SM OVC024 21/14 A2995 RMK AO2 SLP136 T02060144 10239 20206 57008

时间: 20:42 (00:42 UTC)

预报

该预报发布于1小时和22分钟前的23:20 UTC
预报有效从16日的 00点(UTC)到 16日的 24点(UTC)
风速6节,风向南转南东
能見度: 10公里
阴天层高于2500英尺
从 16日的 0400点(UTC)
风速节,风向
能見度: 10公里
阴天层高于1800英尺
附近有阵雨
短暂存在
从 16日的 05点(UTC)到 16日的 09点(UTC)
能見度: 3.2公里
阴天层高于800英尺
小阵雨, 轻雾
从 16日的 0900点(UTC)
风速3节,风向多变
能見度: 4.8公里
阴天层高于700英尺
小阵雨, 轻雾
从 16日的 1300点(UTC)
风速6节,风向西北
能見度: 10公里
多云层高于1700英尺
从 16日的 1500点(UTC)
风速10节,风向北转西北,有时为18节阵风
能見度: 10公里
多云层高于3000英尺
从 16日的 1600点(UTC)
风速10节,风向北转西北,有时为18节阵风
能見度: 10公里
散云层高于9000英尺

TAF: KCHA 152320Z 1600/1624 16006KT P6SM OVC025 FM160400 00000KT P6SM VCSH OVC018 TEMPO 1605/1609 2SM -SHRA BR OVC008 FM160900 VRB03KT 3SM -SHRA BR OVC007 FM161300 31006KT P6SM BKN017 FM161500 34010G18KT P6SM BKN030 FM161600 33010G18KT P6SM SCT090

超过4000个机场的气象观测和天气预报(METAR&TAF报告)。

可查询的气象台以黄色和红色小点在地图上表示。

将鼠标移到小点上方,可查看气象台名称。

然后点击查看天气观测和预报。

如需切换地图:点击带黑十字的绿色按钮放大地图;点击带横线的绿色按钮缩小地图;或者点击绿色箭头查看邻近地区的地图。


METAR-TAF: